sensor_id;sensor_type;location;lat;lon;timestamp;pressure;altitude;pressure_sealevel;temperature;humidity
71666;BME280;59503;53.486;10.196;2023-01-13T00:01:22;100010.63;;;9.24;100.00
71666;BME280;59503;53.486;10.196;2023-01-13T00:03:48;100013.03;;;9.29;100.00
71666;BME280;59503;53.486;10.196;2023-01-13T00:06:15;100014.41;;;9.16;100.00
71666;BME280;59503;53.486;10.196;2023-01-13T00:08:42;100008.91;;;9.09;100.00
71666;BME280;59503;53.486;10.196;2023-01-13T00:11:08;100009.75;;;9.16;100.00
71666;BME280;59503;53.486;10.196;2023-01-13T00:13:35;100021.50;;;9.24;100.00
71666;BME280;59503;53.486;10.196;2023-01-13T00:16:04;100008.66;;;9.21;100.00
71666;BME280;59503;53.486;10.196;2023-01-13T00:18:31;100010.63;;;9.24;100.00
71666;BME280;59503;53.486;10.196;2023-01-13T00:21:08;100015.97;;;9.17;100.00
71666;BME280;59503;53.486;10.196;2023-01-13T00:23:35;100008.13;;;9.08;100.00
71666;BME280;59503;53.486;10.196;2023-01-13T00:26:04;100007.28;;;9.04;100.00
71666;BME280;59503;53.486;10.196;2023-01-13T00:28:30;100006.47;;;9.00;100.00
71666;BME280;59503;53.486;10.196;2023-01-13T00:31:03;100028.06;;;8.93;100.00
71666;BME280;59503;53.486;10.196;2023-01-13T00:33:29;100038.44;;;8.88;100.00
71666;BME280;59503;53.486;10.196;2023-01-13T00:35:56;100026.28;;;8.74;100.00
71666;BME280;59503;53.486;10.196;2023-01-13T00:38:22;100022.44;;;8.49;100.00
71666;BME280;59503;53.486;10.196;2023-01-13T00:40:55;100020.47;;;8.46;100.00
71666;BME280;59503;53.486;10.196;2023-01-13T00:43:21;100027.19;;;8.33;100.00
71666;BME280;59503;53.486;10.196;2023-01-13T00:45:49;100023.09;;;8.20;100.00
71666;BME280;59503;53.486;10.196;2023-01-13T00:48:19;100019.47;;;8.09;100.00
71666;BME280;59503;53.486;10.196;2023-01-13T00:50:45;100013.88;;;7.99;100.00
71666;BME280;59503;53.486;10.196;2023-01-13T00:53:11;100029.75;;;8.00;100.00
71666;BME280;59503;53.486;10.196;2023-01-13T00:55:38;100025.34;;;7.92;100.00
71666;BME280;59503;53.486;10.196;2023-01-13T00:58:03;100042.38;;;7.93;100.00
71666;BME280;59503;53.486;10.196;2023-01-13T01:00:30;100038.75;;;7.85;100.00
71666;BME280;59503;53.486;10.196;2023-01-13T01:02:56;100042.63;;;7.84;100.00
71666;BME280;59503;53.486;10.196;2023-01-13T01:05:21;100015.50;;;7.81;100.00
71666;BME280;59503;53.486;10.196;2023-01-13T01:07:47;100026.31;;;7.81;100.00
71666;BME280;59503;53.486;10.196;2023-01-13T01:10:13;100029.09;;;7.84;100.00
71666;BME280;59503;53.486;10.196;2023-01-13T01:12:38;100025.53;;;7.80;100.00
71666;BME280;59503;53.486;10.196;2023-01-13T01:15:04;100018.13;;;7.77;100.00
71666;BME280;59503;53.486;10.196;2023-01-13T01:17:32;99996.88;;;7.76;100.00
71666;BME280;59503;53.486;10.196;2023-01-13T01:19:57;100020.84;;;7.77;100.00
71666;BME280;59503;53.486;10.196;2023-01-13T01:22:23;100017.72;;;7.75;100.00
71666;BME280;59503;53.486;10.196;2023-01-13T01:24:48;100006.91;;;7.75;100.00
71666;BME280;59503;53.486;10.196;2023-01-13T01:27:14;100016.94;;;7.75;100.00
71666;BME280;59503;53.486;10.196;2023-01-13T01:29:39;100026.97;;;7.74;100.00
71666;BME280;59503;53.486;10.196;2023-01-13T01:32:05;100028.25;;;7.80;100.00
71666;BME280;59503;53.486;10.196;2023-01-13T01:34:30;100021.56;;;7.74;100.00
71666;BME280;59503;53.486;10.196;2023-01-13T01:36:55;100034.66;;;7.72;100.00
71666;BME280;59503;53.486;10.196;2023-01-13T01:39:21;100033.94;;;7.75;100.00
71666;BME280;59503;53.486;10.196;2023-01-13T01:41:46;100026.84;;;7.67;100.00
71666;BME280;59503;53.486;10.196;2023-01-13T01:47:06;100034.09;;;7.63;100.00
71666;BME280;59503;53.486;10.196;2023-01-13T01:49:34;100038.78;;;7.66;100.00
71666;BME280;59503;53.486;10.196;2023-01-13T01:52:05;100049.91;;;7.61;100.00
71666;BME280;59503;53.486;10.196;2023-01-13T01:54:39;100049.16;;;7.61;100.00
71666;BME280;59503;53.486;10.196;2023-01-13T01:57:08;100052.22;;;7.59;100.00
71666;BME280;59503;53.486;10.196;2023-01-13T01:59:37;100051.06;;;7.60;100.00
71666;BME280;59503;53.486;10.196;2023-01-13T02:02:03;100039.88;;;7.62;100.00
71666;BME280;59503;53.486;10.196;2023-01-13T02:04:33;100044.78;;;7.56;100.00
71666;BME280;59503;53.486;10.196;2023-01-13T02:07:01;100042.81;;;7.53;100.00
71666;BME280;59503;53.486;10.196;2023-01-13T02:09:28;100036.56;;;7.49;100.00
71666;BME280;59503;53.486;10.196;2023-01-13T02:11:54;100037.22;;;7.42;100.00
71666;BME280;59503;53.486;10.196;2023-01-13T02:14:39;100052.56;;;7.38;100.00
71666;BME280;59503;53.486;10.196;2023-01-13T02:23:58;100039.28;;;7.49;100.00
71666;BME280;59503;53.486;10.196;2023-01-13T02:27:06;100033.00;;;7.45;100.00
71666;BME280;59503;53.486;10.196;2023-01-13T02:38:39;100043.38;;;7.43;100.00
71666;BME280;59503;53.486;10.196;2023-01-13T02:41:14;100049.38;;;7.33;100.00
71666;BME280;59503;53.486;10.196;2023-01-13T02:44:02;100064.69;;;7.25;100.00
71666;BME280;59503;53.486;10.196;2023-01-13T02:49:37;100057.19;;;7.00;100.00
71666;BME280;59503;53.486;10.196;2023-01-13T02:52:27;100059.75;;;6.93;100.00
71666;BME280;59503;53.486;10.196;2023-01-13T02:55:01;100047.81;;;6.94;100.00
71666;BME280;59503;53.486;10.196;2023-01-13T02:57:30;100048.22;;;6.96;100.00
71666;BME280;59503;53.486;10.196;2023-01-13T02:59:58;100043.44;;;6.89;100.00
71666;BME280;59503;53.486;10.196;2023-01-13T03:02:24;100049.13;;;6.84;100.00
71666;BME280;59503;53.486;10.196;2023-01-13T03:04:59;100052.47;;;6.78;100.00
71666;BME280;59503;53.486;10.196;2023-01-13T03:10:06;100054.06;;;6.98;100.00
71666;BME280;59503;53.486;10.196;2023-01-13T03:15:53;100058.25;;;7.14;100.00
71666;BME280;59503;53.486;10.196;2023-01-13T03:21:47;100064.81;;;7.13;100.00
71666;BME280;59503;53.486;10.196;2023-01-13T03:24:33;100081.47;;;7.15;100.00
71666;BME280;59503;53.486;10.196;2023-01-13T03:27:08;100084.72;;;7.24;100.00
71666;BME280;59503;53.486;10.196;2023-01-13T03:30:37;100082.66;;;7.18;100.00
71666;BME280;59503;53.486;10.196;2023-01-13T03:32:49;100081.38;;;7.12;100.00
71666;BME280;59503;53.486;10.196;2023-01-13T03:35:17;100083.66;;;7.10;100.00
71666;BME280;59503;53.486;10.196;2023-01-13T03:37:49;100089.84;;;7.10;100.00
71666;BME280;59503;53.486;10.196;2023-01-13T03:40:20;100095.94;;;7.07;100.00
71666;BME280;59503;53.486;10.196;2023-01-13T03:42:56;100101.28;;;7.04;100.00
71666;BME280;59503;53.486;10.196;2023-01-13T03:45:48;100097.72;;;7.00;100.00
71666;BME280;59503;53.486;10.196;2023-01-13T03:48:18;100102.59;;;6.94;100.00
71666;BME280;59503;53.486;10.196;2023-01-13T03:50:53;100114.13;;;6.91;100.00
71666;BME280;59503;53.486;10.196;2023-01-13T03:53:26;100105.94;;;6.88;100.00
71666;BME280;59503;53.486;10.196;2023-01-13T03:55:58;100102.59;;;6.75;100.00
71666;BME280;59503;53.486;10.196;2023-01-13T03:58:32;100109.09;;;6.74;100.00
71666;BME280;59503;53.486;10.196;2023-01-13T04:04:05;100088.50;;;6.51;100.00
71666;BME280;59503;53.486;10.196;2023-01-13T04:06:48;100082.31;;;6.50;100.00
71666;BME280;59503;53.486;10.196;2023-01-13T04:11:55;100083.53;;;6.37;100.00
71666;BME280;59503;53.486;10.196;2023-01-13T04:14:24;100081.88;;;6.32;100.00
71666;BME280;59503;53.486;10.196;2023-01-13T04:16:51;100078.56;;;6.23;100.00
71666;BME280;59503;53.486;10.196;2023-01-13T04:19:17;100082.50;;;6.26;100.00
71666;BME280;59503;53.486;10.196;2023-01-13T04:21:42;100076.50;;;6.17;100.00
71666;BME280;59503;53.486;10.196;2023-01-13T04:24:08;100078.25;;;6.09;100.00
71666;BME280;59503;53.486;10.196;2023-01-13T04:26:33;100080.69;;;6.14;100.00
71666;BME280;59503;53.486;10.196;2023-01-13T04:28:59;100077.09;;;6.10;100.00
71666;BME280;59503;53.486;10.196;2023-01-13T04:31:24;100072.41;;;6.07;100.00
71666;BME280;59503;53.486;10.196;2023-01-13T04:33:49;100072.84;;;6.09;100.00
71666;BME280;59503;53.486;10.196;2023-01-13T04:36:15;100082.84;;;6.09;100.00
71666;BME280;59503;53.486;10.196;2023-01-13T04:38:40;100084.06;;;5.96;100.00
71666;BME280;59503;53.486;10.196;2023-01-13T04:41:06;100082.72;;;5.90;100.00
71666;BME280;59503;53.486;10.196;2023-01-13T04:43:31;100075.03;;;5.76;100.00
71666;BME280;59503;53.486;10.196;2023-01-13T04:45:57;100085.81;;;5.76;100.00
71666;BME280;59503;53.486;10.196;2023-01-13T04:48:22;100085.56;;;5.81;100.00
71666;BME280;59503;53.486;10.196;2023-01-13T04:50:47;100087.63;;;5.84;100.00
71666;BME280;59503;53.486;10.196;2023-01-13T04:53:13;100090.41;;;5.88;100.00
71666;BME280;59503;53.486;10.196;2023-01-13T04:55:38;100089.72;;;5.91;100.00
71666;BME280;59503;53.486;10.196;2023-01-13T04:58:06;100081.53;;;5.87;100.00
71666;BME280;59503;53.486;10.196;2023-01-13T05:00:32;100087.72;;;5.88;100.00
71666;BME280;59503;53.486;10.196;2023-01-13T05:02:58;100082.06;;;5.93;100.00
71666;BME280;59503;53.486;10.196;2023-01-13T05:05:24;100090.72;;;5.86;100.00
71666;BME280;59503;53.486;10.196;2023-01-13T05:07:50;100093.00;;;5.84;100.00
71666;BME280;59503;53.486;10.196;2023-01-13T05:10:16;100088.56;;;5.92;100.00
71666;BME280;59503;53.486;10.196;2023-01-13T05:12:41;100088.81;;;5.87;100.00
71666;BME280;59503;53.486;10.196;2023-01-13T05:15:25;100079.53;;;5.84;100.00
71666;BME280;59503;53.486;10.196;2023-01-13T05:18:09;100071.56;;;5.76;100.00
71666;BME280;59503;53.486;10.196;2023-01-13T05:20:35;100085.56;;;5.81;100.00
71666;BME280;59503;53.486;10.196;2023-01-13T05:23:00;100067.59;;;5.85;100.00
71666;BME280;59503;53.486;10.196;2023-01-13T05:25:46;100067.19;;;5.71;100.00
71666;BME280;59503;53.486;10.196;2023-01-13T05:28:12;100051.53;;;5.77;100.00
71666;BME280;59503;53.486;10.196;2023-01-13T05:30:41;100060.53;;;5.81;100.00
71666;BME280;59503;53.486;10.196;2023-01-13T05:33:08;100071.44;;;5.84;100.00
71666;BME280;59503;53.486;10.196;2023-01-13T05:35:35;100064.34;;;5.80;100.00
71666;BME280;59503;53.486;10.196;2023-01-13T05:38:01;100067.59;;;5.85;100.00
71666;BME280;59503;53.486;10.196;2023-01-13T05:40:26;100065.47;;;5.79;100.00
71666;BME280;59503;53.486;10.196;2023-01-13T05:43:15;100059.88;;;5.72;100.00
71666;BME280;59503;53.486;10.196;2023-01-13T05:46:08;100061.88;;;5.75;100.00
71666;BME280;59503;53.486;10.196;2023-01-13T05:48:39;100071.03;;;5.70;100.00
71666;BME280;59503;53.486;10.196;2023-01-13T05:51:07;100079.66;;;5.76;100.00
71666;BME280;59503;53.486;10.196;2023-01-13T05:53:33;100076.50;;;5.74;100.00
71666;BME280;59503;53.486;10.196;2023-01-13T05:55:59;100074.66;;;5.62;100.00
71666;BME280;59503;53.486;10.196;2023-01-13T05:58:26;100081.91;;;5.74;100.00
71666;BME280;59503;53.486;10.196;2023-01-13T06:00:52;100085.56;;;5.81;100.00
71666;BME280;59503;53.486;10.196;2023-01-13T06:03:18;100083.56;;;5.78;100.00
71666;BME280;59503;53.486;10.196;2023-01-13T06:05:47;100077.59;;;5.85;100.00
71666;BME280;59503;53.486;10.196;2023-01-13T06:08:14;100086.91;;;5.87;100.00
71666;BME280;59503;53.486;10.196;2023-01-13T06:10:40;100079.28;;;5.89;100.00
71666;BME280;59503;53.486;10.196;2023-01-13T06:13:05;100068.03;;;5.87;100.00
71666;BME280;59503;53.486;10.196;2023-01-13T06:15:31;100073.69;;;5.82;100.00
71666;BME280;59503;53.486;10.196;2023-01-13T06:17:56;100074.53;;;5.86;100.00
71666;BME280;59503;53.486;10.196;2023-01-13T06:20:23;100074.75;;;5.93;100.00
71666;BME280;59503;53.486;10.196;2023-01-13T06:22:49;100071.69;;;5.95;100.00
71666;BME280;59503;53.486;10.196;2023-01-13T06:25:40;100063.44;;;5.88;100.00
71666;BME280;59503;53.486;10.196;2023-01-13T06:28:09;100069.09;;;5.83;100.00
71666;BME280;59503;53.486;10.196;2023-01-13T06:30:38;100072.06;;;5.81;100.00
71666;BME280;59503;53.486;10.196;2023-01-13T06:33:07;100071.59;;;5.91;100.00
71666;BME280;59503;53.486;10.196;2023-01-13T06:35:36;100075.34;;;5.87;100.00
71666;BME280;59503;53.486;10.196;2023-01-13T06:38:05;100071.22;;;5.77;100.00
71666;BME280;59503;53.486;10.196;2023-01-13T06:40:33;100057.59;;;5.86;100.00
71666;BME280;59503;53.486;10.196;2023-01-13T06:42:59;100062.22;;;5.85;100.00
71666;BME280;59503;53.486;10.196;2023-01-13T06:45:50;100062.91;;;5.82;100.00
71666;BME280;59503;53.486;10.196;2023-01-13T06:48:18;100068.28;;;5.82;100.00
71666;BME280;59503;53.486;10.196;2023-01-13T06:50:44;100061.25;;;5.93;100.00
71666;BME280;59503;53.486;10.196;2023-01-13T06:53:10;100058.91;;;6.07;100.00
71666;BME280;59503;53.486;10.196;2023-01-13T06:55:35;100065.47;;;6.06;100.00
71666;BME280;59503;53.486;10.196;2023-01-13T06:58:01;100070.66;;;6.15;100.00
71666;BME280;59503;53.486;10.196;2023-01-13T07:00:27;100066.75;;;6.12;100.00
71666;BME280;59503;53.486;10.196;2023-01-13T07:02:52;100079.97;;;6.17;100.00
71666;BME280;59503;53.486;10.196;2023-01-13T07:05:19;100071.53;;;6.35;100.00
71666;BME280;59503;53.486;10.196;2023-01-13T07:07:45;100076.84;;;6.31;100.00
71666;BME280;59503;53.486;10.196;2023-01-13T07:10:12;100079.72;;;6.38;100.00
71666;BME280;59503;53.486;10.196;2023-01-13T07:12:39;100073.78;;;6.32;100.00
71666;BME280;59503;53.486;10.196;2023-01-13T07:15:24;100090.97;;;6.24;100.00
71666;BME280;59503;53.486;10.196;2023-01-13T07:17:51;100084.06;;;6.27;100.00
71666;BME280;59503;53.486;10.196;2023-01-13T07:20:16;100081.88;;;6.32;100.00
71666;BME280;59503;53.486;10.196;2023-01-13T07:22:42;100087.13;;;6.25;100.00
71666;BME280;59503;53.486;10.196;2023-01-13T07:25:08;100088.50;;;6.19;100.00
71666;BME280;59503;53.486;10.196;2023-01-13T07:27:34;100083.03;;;6.16;100.00
71666;BME280;59503;53.486;10.196;2023-01-13T07:29:59;100083.56;;;6.21;100.00
71666;BME280;59503;53.486;10.196;2023-01-13T07:32:24;100074.06;;;6.27;100.00
71666;BME280;59503;53.486;10.196;2023-01-13T07:34:50;100081.38;;;6.27;100.00
71666;BME280;59503;53.486;10.196;2023-01-13T07:37:15;100079.47;;;6.27;100.00
71666;BME280;59503;53.486;10.196;2023-01-13T07:39:41;100084.06;;;6.27;100.00
71666;BME280;59503;53.486;10.196;2023-01-13T07:42:07;100084.31;;;6.38;100.00
71666;BME280;59503;53.486;10.196;2023-01-13T07:44:51;100086.69;;;6.39;100.00
71666;BME280;59503;53.486;10.196;2023-01-13T07:47:17;100078.94;;;6.38;100.00
71666;BME280;59503;53.486;10.196;2023-01-13T07:49:45;100085.13;;;6.38;100.00
71666;BME280;59503;53.486;10.196;2023-01-13T07:52:11;100076.59;;;6.36;100.00
71666;BME280;59503;53.486;10.196;2023-01-13T07:54:36;100078.66;;;6.43;100.00
71666;BME280;59503;53.486;10.196;2023-01-13T07:57:02;100074.41;;;6.42;100.00
71666;BME280;59503;53.486;10.196;2023-01-13T07:59:27;100078.75;;;6.46;100.00
71666;BME280;59503;53.486;10.196;2023-01-13T08:01:52;100085.22;;;6.42;100.00
71666;BME280;59503;53.486;10.196;2023-01-13T08:04:18;100076.22;;;6.38;100.00
71666;BME280;59503;53.486;10.196;2023-01-13T08:06:43;100075.97;;;6.43;100.00
71666;BME280;59503;53.486;10.196;2023-01-13T08:09:09;100084.06;;;6.43;100.00
71666;BME280;59503;53.486;10.196;2023-01-13T08:11:34;100079.91;;;6.45;100.00
71666;BME280;59503;53.486;10.196;2023-01-13T08:13:59;100079.94;;;6.49;100.00
71666;BME280;59503;53.486;10.196;2023-01-13T08:16:25;100074.63;;;6.52;100.00
71666;BME280;59503;53.486;10.196;2023-01-13T08:18:50;100073.88;;;6.52;100.00
71666;BME280;59503;53.486;10.196;2023-01-13T08:21:16;100076.31;;;6.57;100.00
71666;BME280;59503;53.486;10.196;2023-01-13T08:23:42;100066.34;;;6.61;100.00
71666;BME280;59503;53.486;10.196;2023-01-13T08:26:11;100063.91;;;6.71;100.00
71666;BME280;59503;53.486;10.196;2023-01-13T08:28:37;100069.81;;;6.77;100.00
71666;BME280;59503;53.486;10.196;2023-01-13T08:31:08;100076.13;;;6.65;100.00
71666;BME280;59503;53.486;10.196;2023-01-13T08:33:34;100076.16;;;6.69;100.00
71666;BME280;59503;53.486;10.196;2023-01-13T08:36:04;100075.97;;;6.77;100.00
71666;BME280;59503;53.486;10.196;2023-01-13T08:38:31;100067.75;;;6.89;100.00
71666;BME280;59503;53.486;10.196;2023-01-13T08:40:56;100069.44;;;6.94;100.00
71666;BME280;59503;53.486;10.196;2023-01-13T08:43:22;100074.66;;;6.87;100.00
71666;BME280;59503;53.486;10.196;2023-01-13T08:45:58;100071.28;;;7.09;100.00
71666;BME280;59503;53.486;10.196;2023-01-13T08:48:25;100074.47;;;7.14;100.00
71666;BME280;59503;53.486;10.196;2023-01-13T08:50:51;100079.97;;;7.18;100.00
71666;BME280;59503;53.486;10.196;2023-01-13T08:53:17;100077.47;;;7.09;100.00
71666;BME280;59503;53.486;10.196;2023-01-13T08:55:43;100085.44;;;7.21;100.00
71666;BME280;59503;53.486;10.196;2023-01-13T08:58:08;100078.25;;;7.10;100.00
71666;BME280;59503;53.486;10.196;2023-01-13T09:00:34;100073.06;;;7.20;100.00
71666;BME280;59503;53.486;10.196;2023-01-13T09:02:59;100088.50;;;7.20;100.00
71666;BME280;59503;53.486;10.196;2023-01-13T09:05:25;100090.50;;;7.23;100.00
71666;BME280;59503;53.486;10.196;2023-01-13T09:07:50;100091.28;;;7.23;100.00
71666;BME280;59503;53.486;10.196;2023-01-13T09:10:16;100094.81;;;7.27;100.00
71666;BME280;59503;53.486;10.196;2023-01-13T09:12:41;100088.28;;;7.28;100.00
71666;BME280;59503;53.486;10.196;2023-01-13T09:15:25;100088.22;;;7.25;100.00
71666;BME280;59503;53.486;10.196;2023-01-13T09:17:50;100081.97;;;7.40;99.28
71666;BME280;59503;53.486;10.196;2023-01-13T09:20:16;100082.31;;;7.38;99.29
71666;BME280;59503;53.486;10.196;2023-01-13T09:22:42;100072.22;;;7.35;98.50
71666;BME280;59503;53.486;10.196;2023-01-13T09:25:07;100084.81;;;7.28;100.00
71666;BME280;59503;53.486;10.196;2023-01-13T09:27:33;100079.53;;;7.35;99.79
71666;BME280;59503;53.486;10.196;2023-01-13T09:29:58;100072.84;;;7.48;99.95
71666;BME280;59503;53.486;10.196;2023-01-13T09:32:24;100074.81;;;7.51;98.73
71666;BME280;59503;53.486;10.196;2023-01-13T09:34:49;100071.25;;;7.66;98.12
71666;BME280;59503;53.486;10.196;2023-01-13T09:37:31;100081.09;;;7.74;95.70
71666;BME280;59503;53.486;10.196;2023-01-13T09:39:58;100078.97;;;7.64;95.78
71666;BME280;59503;53.486;10.196;2023-01-13T09:45:43;100090.06;;;7.59;96.29
71666;BME280;59503;53.486;10.196;2023-01-13T09:48:25;100076.91;;;7.57;95.66
71666;BME280;59503;53.486;10.196;2023-01-13T09:51:11;100083.56;;;7.83;94.38
71666;BME280;59503;53.486;10.196;2023-01-13T09:53:47;100076.41;;;7.94;92.97
71666;BME280;59503;53.486;10.196;2023-01-13T09:56:15;100072.22;;;7.96;93.50
71666;BME280;59503;53.486;10.196;2023-01-13T09:58:47;100060.97;;;7.94;93.07
71666;BME280;59503;53.486;10.196;2023-01-13T10:03:53;100043.22;;;7.97;92.12
71666;BME280;59503;53.486;10.196;2023-01-13T10:06:38;100038.66;;;8.01;91.13
71666;BME280;59503;53.486;10.196;2023-01-13T10:09:13;100053.91;;;8.12;90.33
71666;BME280;59503;53.486;10.196;2023-01-13T10:11:43;100044.31;;;8.15;90.08
71666;BME280;59503;53.486;10.196;2023-01-13T10:14:51;100052.88;;;8.20;91.55
71666;BME280;59503;53.486;10.196;2023-01-13T10:17:29;100055.69;;;8.24;92.31
71666;BME280;59503;53.486;10.196;2023-01-13T10:22:58;100063.63;;;8.36;92.28
71666;BME280;59503;53.486;10.196;2023-01-13T10:25:33;100045.81;;;8.35;88.33
71666;BME280;59503;53.486;10.196;2023-01-13T10:28:11;100062.00;;;8.31;88.22
71666;BME280;59503;53.486;10.196;2023-01-13T10:30:43;100071.47;;;8.22;88.31
71666;BME280;59503;53.486;10.196;2023-01-13T10:35:59;100051.94;;;8.09;89.64
71666;BME280;59503;53.486;10.196;2023-01-13T10:41:01;100059.09;;;7.98;92.23
71666;BME280;59503;53.486;10.196;2023-01-13T10:43:28;100052.31;;;8.08;90.87
71666;BME280;59503;53.486;10.196;2023-01-13T10:46:00;100057.84;;;8.15;89.88
71666;BME280;59503;53.486;10.196;2023-01-13T10:48:41;100046.91;;;8.08;91.24
71666;BME280;59503;53.486;10.196;2023-01-13T10:56:21;100057.19;;;8.21;89.69
71666;BME280;59503;53.486;10.196;2023-01-13T10:58:47;100054.03;;;8.19;88.72
71666;BME280;59503;53.486;10.196;2023-01-13T11:01:23;100065.16;;;8.14;89.08
71666;BME280;59503;53.486;10.196;2023-01-13T11:03:50;100061.59;;;8.29;89.58
71666;BME280;59503;53.486;10.196;2023-01-13T11:06:25;100061.28;;;8.34;89.50
71666;BME280;59503;53.486;10.196;2023-01-13T11:08:54;100073.91;;;8.04;91.22
71666;BME280;59503;53.486;10.196;2023-01-13T11:11:26;100077.97;;;7.95;93.66
71666;BME280;59503;53.486;10.196;2023-01-13T11:13:54;100077.63;;;7.96;95.76
71666;BME280;59503;53.486;10.196;2023-01-13T11:16:41;100083.19;;;7.84;96.59
71666;BME280;59503;53.486;10.196;2023-01-13T11:19:14;100087.69;;;7.77;97.13
71666;BME280;59503;53.486;10.196;2023-01-13T11:21:50;100103.97;;;7.57;100.00
71666;BME280;59503;53.486;10.196;2023-01-13T11:24:44;100087.78;;;7.61;100.00
71666;BME280;59503;53.486;10.196;2023-01-13T11:27:22;100084.09;;;7.50;100.00
71666;BME280;59503;53.486;10.196;2023-01-13T11:32:22;100105.84;;;7.38;100.00
71666;BME280;59503;53.486;10.196;2023-01-13T11:34:53;100100.09;;;7.20;100.00
71666;BME280;59503;53.486;10.196;2023-01-13T11:37:33;100105.56;;;7.05;100.00
71666;BME280;59503;53.486;10.196;2023-01-13T11:40:22;100109.72;;;7.02;100.00
71666;BME280;59503;53.486;10.196;2023-01-13T11:43:02;100099.56;;;6.96;100.00
71666;BME280;59503;53.486;10.196;2023-01-13T11:47:59;100093.22;;;6.88;100.00
71666;BME280;59503;53.486;10.196;2023-01-13T11:50:59;100092.09;;;6.89;100.00
71666;BME280;59503;53.486;10.196;2023-01-13T11:59:49;100076.13;;;7.19;100.00
71666;BME280;59503;53.486;10.196;2023-01-13T12:05:22;100088.06;;;7.18;100.00
71666;BME280;59503;53.486;10.196;2023-01-13T12:23:45;100086.16;;;7.18;100.00
71666;BME280;59503;53.486;10.196;2023-01-13T12:26:13;100075.06;;;7.23;100.00
71666;BME280;59503;53.486;10.196;2023-01-13T12:28:59;100082.31;;;7.19;100.00
71666;BME280;59503;53.486;10.196;2023-01-13T12:31:27;100084.72;;;7.24;100.00
71666;BME280;59503;53.486;10.196;2023-01-13T12:38:56;100084.94;;;7.54;100.00
71666;BME280;59503;53.486;10.196;2023-01-13T12:43:57;100096.31;;;7.63;100.00
71666;BME280;59503;53.486;10.196;2023-01-13T12:46:52;100082.06;;;7.66;100.00
71666;BME280;59503;53.486;10.196;2023-01-13T12:49:22;100086.66;;;7.62;100.00
71666;BME280;59503;53.486;10.196;2023-01-13T12:56:54;100080.09;;;7.63;100.00
71666;BME280;59503;53.486;10.196;2023-01-13T13:01:47;100101.59;;;7.56;100.00
71666;BME280;59503;53.486;10.196;2023-01-13T13:04:21;100090.28;;;7.50;100.00
71666;BME280;59503;53.486;10.196;2023-01-13T13:07:24;100098.97;;;7.40;100.00
71666;BME280;59503;53.486;10.196;2023-01-13T13:10:17;100109.22;;;7.31;100.00
71666;BME280;59503;53.486;10.196;2023-01-13T13:12:54;100101.72;;;7.25;100.00
71666;BME280;59503;53.486;10.196;2023-01-13T13:15:39;100111.56;;;7.14;100.00
71666;BME280;59503;53.486;10.196;2023-01-13T13:18:20;100104.91;;;7.11;100.00
71666;BME280;59503;53.486;10.196;2023-01-13T13:23:41;100112.22;;;7.11;100.00
71666;BME280;59503;53.486;10.196;2023-01-13T13:34:55;100111.41;;;7.07;100.00
71666;BME280;59503;53.486;10.196;2023-01-13T13:40:21;100116.38;;;7.05;100.00
71666;BME280;59503;53.486;10.196;2023-01-13T13:43:11;100114.81;;;7.04;100.00
71666;BME280;59503;53.486;10.196;2023-01-13T13:45:56;100117.91;;;7.06;100.00
71666;BME280;59503;53.486;10.196;2023-01-13T13:48:52;100118.50;;;7.15;100.00
71666;BME280;59503;53.486;10.196;2023-01-13T13:51:35;100126.19;;;7.13;100.00
71666;BME280;59503;53.486;10.196;2023-01-13T13:54:08;100118.06;;;7.13;100.00
71666;BME280;59503;53.486;10.196;2023-01-13T13:56:41;100123.34;;;7.25;100.00
71666;BME280;59503;53.486;10.196;2023-01-13T13:59:10;100136.34;;;7.19;100.00
71666;BME280;59503;53.486;10.196;2023-01-13T14:01:37;100128.06;;;7.28;100.00
71666;BME280;59503;53.486;10.196;2023-01-13T14:04:11;100138.16;;;7.31;100.00
71666;BME280;59503;53.486;10.196;2023-01-13T14:06:51;100135.72;;;7.26;100.00
71666;BME280;59503;53.486;10.196;2023-01-13T14:09:17;100145.06;;;7.28;100.00
71666;BME280;59503;53.486;10.196;2023-01-13T14:11:54;100141.13;;;7.26;100.00
71666;BME280;59503;53.486;10.196;2023-01-13T14:14:20;100145.34;;;7.23;100.00
71666;BME280;59503;53.486;10.196;2023-01-13T14:16:47;100140.84;;;7.12;100.00
71666;BME280;59503;53.486;10.196;2023-01-13T14:19:28;100143.91;;;7.10;100.00
71666;BME280;59503;53.486;10.196;2023-01-13T14:21:55;100147.16;;;7.19;100.00
71666;BME280;59503;53.486;10.196;2023-01-13T14:24:21;100153.66;;;7.15;100.00
71666;BME280;59503;53.486;10.196;2023-01-13T14:26:47;100155.63;;;7.18;100.00
71666;BME280;59503;53.486;10.196;2023-01-13T14:29:23;100159.03;;;7.15;100.00
71666;BME280;59503;53.486;10.196;2023-01-13T14:31:50;100147.09;;;7.16;100.00
71666;BME280;59503;53.486;10.196;2023-01-13T14:34:19;100148.25;;;7.15;100.00
71666;BME280;59503;53.486;10.196;2023-01-13T14:36:46;100153.91;;;7.10;100.00
71666;BME280;59503;53.486;10.196;2023-01-13T14:44:12;100155.34;;;7.04;100.00
71666;BME280;59503;53.486;10.196;2023-01-13T14:46:42;100158.63;;;6.97;100.00
71666;BME280;59503;53.486;10.196;2023-01-13T14:49:29;100151.25;;;6.94;100.00
71666;BME280;59503;53.486;10.196;2023-01-13T14:57:33;100157.34;;;6.91;100.00
71666;BME280;59503;53.486;10.196;2023-01-13T15:07:50;100164.66;;;7.06;100.00
71666;BME280;59503;53.486;10.196;2023-01-13T15:12:51;100158.03;;;7.04;100.00
71666;BME280;59503;53.486;10.196;2023-01-13T15:15:28;100173.19;;;7.08;100.00